createdAt,value
2022-10-21T00:00:15.839Z,13.68
2022-10-21T00:02:37.524Z,13.85
2022-10-21T00:04:59.157Z,13.69
2022-10-21T00:07:20.620Z,13.67
2022-10-21T00:09:42.192Z,13.85
2022-10-21T00:12:03.784Z,13.77
2022-10-21T00:14:25.254Z,13.61
2022-10-21T00:16:46.826Z,13.63
2022-10-21T00:19:08.329Z,13.45
2022-10-21T00:21:29.821Z,13.25
2022-10-21T00:23:51.404Z,13.32
2022-10-21T00:26:14.621Z,13.20
2022-10-21T00:28:36.288Z,13.26
2022-10-21T00:30:58.380Z,13.18
2022-10-21T00:33:20.094Z,13.38
2022-10-21T00:35:41.618Z,13.48
2022-10-21T00:38:03.336Z,13.39
2022-10-21T00:40:24.826Z,13.57
2022-10-21T00:42:46.994Z,13.32
2022-10-21T00:45:08.769Z,13.50
2022-10-21T00:47:31.958Z,13.45
2022-10-21T00:50:00.038Z,13.49
2022-10-21T00:52:23.083Z,13.59
2022-10-21T00:54:46.914Z,13.72
2022-10-21T00:57:09.324Z,13.48
2022-10-21T00:59:38.763Z,13.57
2022-10-21T01:02:00.330Z,13.63
2022-10-21T01:04:22.615Z,13.81
2022-10-21T01:06:45.317Z,13.77
2022-10-21T01:09:07.334Z,13.85
2022-10-21T01:11:34.079Z,13.85
2022-10-21T01:14:13.578Z,13.93
2022-10-21T01:17:26.464Z,13.92
2022-10-21T01:20:03.137Z,13.71
2022-10-21T01:23:10.046Z,13.53
2022-10-21T01:25:46.626Z,13.41
2022-10-21T01:28:29.219Z,13.43
2022-10-21T01:30:55.752Z,13.53
2022-10-21T01:33:39.504Z,13.50
2022-10-21T01:36:13.669Z,13.53
2022-10-21T01:38:49.610Z,13.48
2022-10-21T01:41:22.867Z,13.47
2022-10-21T01:43:57.479Z,13.33
2022-10-21T01:46:50.593Z,13.25
2022-10-21T01:49:28.110Z,13.35
2022-10-21T01:51:52.216Z,13.46
2022-10-21T01:54:20.795Z,13.41
2022-10-21T01:56:44.642Z,13.39
2022-10-21T01:59:10.708Z,13.45
2022-10-21T02:01:35.594Z,13.52
2022-10-21T02:04:01.598Z,13.57
2022-10-21T02:06:23.373Z,13.58
2022-10-21T02:08:45.150Z,13.71
2022-10-21T02:11:08.528Z,13.64
2022-10-21T02:13:36.072Z,13.66
2022-10-21T02:16:02.193Z,13.74
2022-10-21T02:18:25.620Z,13.88
2022-10-21T02:20:51.206Z,13.97
2022-10-21T02:23:18.521Z,13.99
2022-10-21T02:25:42.889Z,14.07
2022-10-21T02:28:04.967Z,13.98
2022-10-21T02:30:32.629Z,13.99
2022-10-21T02:33:07.455Z,14.13
2022-10-21T02:35:46.719Z,14.13
2022-10-21T02:38:28.963Z,14.14
2022-10-21T02:40:55.725Z,14.11
2022-10-21T02:43:30.632Z,14.12
2022-10-21T02:45:55.044Z,14.13
2022-10-21T02:48:16.641Z,14.13
2022-10-21T02:50:38.150Z,13.99
2022-10-21T02:52:59.726Z,13.97
2022-10-21T02:55:21.397Z,13.67
2022-10-21T02:57:42.871Z,13.49
2022-10-21T03:00:05.999Z,13.50
2022-10-21T03:02:27.479Z,13.46
2022-10-21T03:04:48.991Z,13.48
2022-10-21T03:07:10.452Z,13.47
2022-10-21T03:09:31.990Z,13.66
2022-10-21T03:11:53.467Z,13.75
2022-10-21T03:14:14.953Z,13.73
2022-10-21T03:16:36.487Z,13.80
2022-10-21T03:18:58.000Z,13.81
2022-10-21T03:21:19.626Z,13.81
2022-10-21T03:23:41.123Z,13.89
2022-10-21T03:26:02.615Z,13.77
2022-10-21T03:28:24.155Z,13.77
2022-10-21T03:30:45.676Z,13.59
2022-10-21T03:33:07.246Z,13.39
2022-10-21T03:35:28.729Z,13.47
2022-10-21T03:37:50.327Z,13.47
2022-10-21T03:40:12.515Z,13.62
2022-10-21T03:42:34.128Z,13.70
2022-10-21T03:44:55.602Z,13.78
2022-10-21T03:47:17.104Z,13.81
2022-10-21T03:49:38.597Z,13.90
2022-10-21T03:52:00.132Z,13.88
2022-10-21T03:54:21.694Z,13.47
2022-10-21T03:56:43.278Z,13.36
2022-10-21T03:59:04.787Z,13.41
2022-10-21T04:01:26.799Z,13.43
2022-10-21T04:03:48.318Z,13.45
2022-10-21T04:06:09.814Z,13.41
2022-10-21T04:08:31.341Z,13.39
2022-10-21T04:10:52.914Z,13.61
2022-10-21T04:13:14.770Z,13.53
2022-10-21T04:15:36.269Z,13.51
2022-10-21T04:17:57.816Z,13.63
2022-10-21T04:20:19.578Z,13.56
2022-10-21T04:22:41.452Z,13.70
2022-10-21T04:25:04.802Z,13.92
2022-10-21T04:27:26.570Z,13.78
2022-10-21T04:29:48.062Z,13.71
2022-10-21T04:32:09.878Z,13.58
2022-10-21T04:34:31.371Z,13.58
2022-10-21T04:36:52.843Z,13.44
2022-10-21T04:39:14.348Z,13.49
2022-10-21T04:41:36.245Z,13.18
2022-10-21T04:43:57.713Z,13.32
2022-10-21T04:46:20.873Z,13.28
2022-10-21T04:48:43.008Z,13.42
2022-10-21T04:51:04.609Z,13.37
2022-10-21T04:53:26.066Z,13.44
2022-10-21T04:55:52.379Z,13.47
2022-10-21T04:58:16.162Z,13.56
2022-10-21T05:00:39.689Z,13.53
2022-10-21T05:03:01.205Z,13.56
2022-10-21T05:05:22.687Z,13.53
2022-10-21T05:07:44.146Z,13.33
2022-10-21T05:10:06.156Z,13.47
2022-10-21T05:12:27.699Z,13.42
2022-10-21T05:14:49.229Z,13.56
2022-10-21T05:17:10.723Z,13.63
2022-10-21T05:19:32.683Z,13.54
2022-10-21T05:21:54.195Z,13.54
2022-10-21T05:24:16.491Z,13.65
2022-10-21T05:26:37.990Z,13.66
2022-10-21T05:28:59.709Z,13.75
2022-10-21T05:31:21.185Z,13.80
2022-10-21T05:33:42.641Z,13.80
2022-10-21T05:36:07.883Z,13.75
2022-10-21T05:38:29.701Z,13.74
2022-10-21T05:40:51.216Z,13.62
2022-10-21T05:43:12.695Z,13.73
2022-10-21T05:45:34.191Z,13.59
2022-10-21T05:47:55.696Z,13.55
2022-10-21T05:50:17.222Z,13.53
2022-10-21T05:52:40.004Z,13.52
2022-10-21T05:55:01.687Z,13.43
2022-10-21T05:57:23.200Z,13.34
2022-10-21T05:59:44.775Z,13.26
2022-10-21T06:02:06.694Z,13.24
2022-10-21T06:04:28.178Z,13.15
2022-10-21T06:06:49.741Z,12.81
2022-10-21T06:09:11.381Z,12.87
2022-10-21T06:11:33.081Z,12.71
2022-10-21T06:13:54.594Z,12.71
2022-10-21T06:16:16.770Z,12.80
2022-10-21T06:18:38.475Z,12.85
2022-10-21T06:21:00.132Z,12.92
2022-10-21T06:23:21.634Z,13.01
2022-10-21T06:25:44.629Z,12.94
2022-10-21T06:28:06.164Z,13.07
2022-10-21T06:30:27.735Z,13.00
2022-10-21T06:32:49.328Z,12.90
2022-10-21T06:35:10.825Z,13.11
2022-10-21T06:37:32.282Z,13.20
2022-10-21T06:39:53.786Z,13.10
2022-10-21T06:42:15.973Z,13.24
2022-10-21T06:44:37.487Z,13.41
2022-10-21T06:46:58.941Z,13.53
2022-10-21T06:49:20.655Z,13.41
2022-10-21T06:51:42.129Z,13.53
2022-10-21T06:54:03.767Z,13.56
2022-10-21T06:56:26.601Z,13.65
2022-10-21T06:58:50.072Z,13.66
2022-10-21T07:01:27.506Z,13.75
2022-10-21T07:03:56.124Z,13.89
2022-10-21T07:06:18.373Z,13.84
2022-10-21T07:08:53.918Z,13.74
2022-10-21T07:11:19.672Z,13.84
2022-10-21T07:13:41.449Z,13.77
2022-10-21T07:16:06.439Z,13.81
2022-10-21T07:18:28.658Z,14.04
2022-10-21T07:20:50.181Z,14.22
2022-10-21T07:23:11.658Z,14.30
2022-10-21T07:25:33.147Z,14.21
2022-10-21T07:27:54.678Z,14.43
2022-10-21T07:30:16.335Z,14.63
2022-10-21T07:32:37.810Z,14.67
2022-10-21T07:35:00.356Z,14.72
2022-10-21T07:37:21.824Z,14.63
2022-10-21T07:39:43.333Z,14.62
2022-10-21T07:42:04.822Z,14.66
2022-10-21T07:44:26.760Z,14.85
2022-10-21T07:46:49.857Z,14.91
2022-10-21T07:49:12.825Z,14.95
2022-10-21T07:51:34.343Z,14.88
2022-10-21T07:53:57.521Z,14.98
2022-10-21T07:56:31.299Z,15.14
2022-10-21T07:58:53.292Z,15.20
2022-10-21T08:01:16.345Z,14.93
2022-10-21T08:03:38.784Z,14.78
2022-10-21T08:06:00.363Z,14.88
2022-10-21T08:08:21.940Z,15.00
2022-10-21T08:10:43.899Z,14.94
2022-10-21T08:13:05.576Z,14.89
2022-10-21T08:15:27.088Z,14.97
2022-10-21T08:17:48.567Z,14.93
2022-10-21T08:20:10.656Z,14.87
2022-10-21T08:22:32.114Z,14.89
2022-10-21T08:24:53.604Z,14.98
2022-10-21T08:27:15.047Z,14.95
2022-10-21T08:29:39.174Z,14.88
2022-10-21T08:32:01.586Z,14.92
2022-10-21T08:34:23.759Z,14.81
2022-10-21T08:36:45.315Z,14.69
2022-10-21T08:39:06.980Z,14.88
2022-10-21T08:41:31.456Z,14.98
2022-10-21T08:43:54.459Z,14.88
2022-10-21T08:46:22.609Z,14.80
2022-10-21T08:48:49.053Z,14.83
2022-10-21T08:51:37.240Z,14.74
2022-10-21T08:54:05.882Z,14.85
2022-10-21T08:56:31.300Z,14.85
2022-10-21T08:58:52.973Z,14.88
2022-10-21T09:01:41.940Z,14.86
2022-10-21T09:04:24.010Z,15.04
2022-10-21T09:07:15.069Z,15.13
2022-10-21T09:09:45.336Z,15.35
2022-10-21T09:12:13.265Z,15.59
2022-10-21T09:15:12.230Z,15.98
2022-10-21T09:17:55.479Z,16.31
2022-10-21T09:20:39.513Z,16.55
2022-10-21T09:23:18.540Z,16.43
2022-10-21T09:25:48.592Z,16.63
2022-10-21T09:28:13.527Z,16.82
2022-10-21T09:30:35.126Z,16.73
2022-10-21T09:32:59.562Z,16.76
2022-10-21T09:35:21.075Z,16.90
2022-10-21T09:37:49.940Z,16.72
2022-10-21T09:40:30.180Z,16.79
2022-10-21T09:42:56.051Z,16.86
2022-10-21T09:45:23.061Z,17.08
2022-10-21T09:47:54.837Z,17.03
2022-10-21T09:50:18.003Z,17.05
2022-10-21T09:52:40.027Z,17.03
2022-10-21T09:55:03.428Z,17.01
2022-10-21T09:57:54.302Z,17.02
2022-10-21T10:00:15.907Z,16.87
2022-10-21T10:02:41.781Z,16.88
2022-10-21T10:05:40.160Z,16.76
2022-10-21T10:08:38.525Z,16.91
2022-10-21T10:11:09.303Z,16.83
2022-10-21T10:13:32.070Z,16.57
2022-10-21T10:15:53.535Z,16.12
2022-10-21T10:18:23.313Z,15.88
2022-10-21T10:20:44.789Z,15.84
2022-10-21T10:23:06.206Z,15.78
2022-10-21T10:25:31.869Z,15.85
2022-10-21T10:27:54.876Z,15.76
2022-10-21T10:30:17.099Z,15.66
2022-10-21T10:32:38.737Z,15.54
2022-10-21T10:35:05.892Z,15.49
2022-10-21T10:37:31.351Z,15.58
2022-10-21T10:39:56.974Z,15.62
2022-10-21T10:42:33.938Z,15.71
2022-10-21T10:44:59.610Z,15.62
2022-10-21T10:47:26.412Z,15.48
2022-10-21T10:49:50.612Z,15.46
2022-10-21T10:52:12.050Z,15.49
2022-10-21T10:54:34.066Z,15.57
2022-10-21T10:57:20.199Z,15.32
2022-10-21T11:00:07.705Z,15.37
2022-10-21T11:02:31.790Z,15.56
2022-10-21T11:05:16.951Z,15.66
2022-10-21T11:07:49.238Z,15.67
2022-10-21T11:10:29.012Z,15.88
2022-10-21T11:12:50.577Z,15.83
2022-10-21T11:15:15.513Z,15.88
2022-10-21T11:17:45.506Z,15.87
2022-10-21T11:20:14.608Z,15.83
2022-10-21T11:22:50.666Z,15.63
2022-10-21T11:25:27.071Z,15.75
2022-10-21T11:28:00.800Z,15.90
2022-10-21T11:30:29.883Z,15.74
2022-10-21T11:33:24.467Z,15.58
2022-10-21T11:35:57.708Z,15.71
2022-10-21T11:38:43.814Z,15.63
2022-10-21T11:41:19.700Z,15.64
2022-10-21T11:43:57.229Z,15.57
2022-10-21T11:46:40.020Z,15.69
2022-10-21T11:49:25.377Z,15.63
2022-10-21T11:51:57.431Z,15.72
2022-10-21T11:54:40.540Z,15.71
2022-10-21T11:57:32.386Z,15.94
2022-10-21T12:00:26.375Z,16.02
2022-10-21T12:03:25.056Z,16.03
2022-10-21T12:06:02.281Z,15.94
2022-10-21T12:08:34.381Z,15.95
2022-10-21T12:11:38.034Z,15.82
2022-10-21T12:14:22.787Z,15.83
2022-10-21T12:16:46.265Z,15.82
2022-10-21T12:19:13.225Z,15.90
2022-10-21T12:21:38.460Z,16.04
2022-10-21T12:24:38.678Z,16.04
2022-10-21T12:27:25.727Z,16.04
2022-10-21T12:29:52.601Z,15.98
2022-10-21T12:32:34.709Z,16.00
2022-10-21T12:34:56.572Z,16.10
2022-10-21T12:37:50.198Z,16.28
2022-10-21T12:40:13.998Z,16.27
2022-10-21T12:42:35.898Z,16.47
2022-10-21T12:44:57.442Z,16.64
2022-10-21T12:47:28.651Z,16.77
2022-10-21T12:50:15.110Z,16.80
2022-10-21T12:52:38.919Z,17.01
2022-10-21T12:55:04.087Z,17.09
2022-10-21T12:57:38.531Z,17.13
2022-10-21T13:00:22.134Z,17.08
2022-10-21T13:03:02.659Z,17.18
2022-10-21T13:05:36.354Z,17.25
2022-10-21T13:08:22.992Z,17.47
2022-10-21T13:11:07.358Z,17.40
2022-10-21T13:13:35.604Z,17.42
2022-10-21T13:15:57.365Z,17.36
2022-10-21T13:18:58.195Z,16.95
2022-10-21T13:21:40.040Z,16.98
2022-10-21T13:24:13.502Z,16.88
2022-10-21T13:26:49.957Z,16.67
2022-10-21T13:29:13.995Z,16.62
2022-10-21T13:31:37.900Z,16.71
2022-10-21T13:34:00.008Z,16.72
2022-10-21T13:36:43.674Z,16.85
2022-10-21T13:39:24.050Z,17.04
2022-10-21T13:41:45.958Z,17.20
2022-10-21T13:44:07.771Z,17.32
2022-10-21T13:46:43.559Z,17.44
2022-10-21T13:49:06.476Z,17.24
2022-10-21T13:51:34.811Z,17.21
2022-10-21T13:53:59.498Z,17.24
2022-10-21T13:56:30.122Z,17.35
2022-10-21T13:58:51.954Z,17.55
2022-10-21T14:01:21.795Z,17.56
2022-10-21T14:03:44.010Z,18.04
2022-10-21T14:06:08.734Z,17.96
2022-10-21T14:08:34.071Z,18.13
2022-10-21T14:11:19.869Z,17.99
2022-10-21T14:13:42.081Z,17.78
2022-10-21T14:16:05.092Z,17.65
2022-10-21T14:18:36.407Z,17.64
2022-10-21T14:21:00.603Z,17.37
2022-10-21T14:23:23.665Z,17.42
2022-10-21T14:25:49.154Z,17.33
2022-10-21T14:28:14.774Z,17.54
2022-10-21T14:30:37.197Z,17.43
2022-10-21T14:33:02.338Z,17.33
2022-10-21T14:35:27.602Z,17.45
2022-10-21T14:38:01.382Z,17.63
2022-10-21T14:40:33.199Z,17.71
2022-10-21T14:42:55.266Z,17.58
2022-10-21T14:45:23.823Z,17.56
2022-10-21T14:47:51.155Z,17.40
2022-10-21T14:50:19.517Z,17.55
2022-10-21T14:52:44.558Z,17.43
2022-10-21T14:55:15.155Z,17.39
2022-10-21T14:57:47.591Z,17.27
2022-10-21T15:00:29.117Z,17.14
2022-10-21T15:02:53.125Z,16.94
2022-10-21T15:05:29.460Z,16.93
2022-10-21T15:07:50.989Z,16.84
2022-10-21T15:10:16.500Z,16.89
2022-10-21T15:12:50.460Z,16.76
2022-10-21T15:15:54.109Z,16.69
2022-10-21T15:18:23.986Z,16.68
2022-10-21T15:20:56.743Z,16.61
2022-10-21T15:23:20.306Z,16.56
2022-10-21T15:25:42.073Z,16.60
2022-10-21T15:28:11.094Z,16.52
2022-10-21T15:30:35.348Z,16.56
2022-10-21T15:32:57.472Z,16.48
2022-10-21T15:35:21.908Z,16.41
2022-10-21T15:37:43.563Z,16.32
2022-10-21T15:40:05.600Z,16.48
2022-10-21T15:42:27.098Z,16.40
2022-10-21T15:44:50.164Z,16.38
2022-10-21T15:47:11.640Z,16.32
2022-10-21T15:49:36.411Z,16.26
2022-10-21T15:51:57.893Z,16.16
2022-10-21T15:54:20.722Z,16.25
2022-10-21T15:56:44.315Z,16.19
2022-10-21T15:59:05.791Z,16.10
2022-10-21T16:01:27.359Z,16.17
2022-10-21T16:03:48.935Z,16.17
2022-10-21T16:06:16.908Z,16.30
2022-10-21T16:08:38.463Z,16.43
2022-10-21T16:11:00.085Z,16.42
2022-10-21T16:13:21.648Z,16.32
2022-10-21T16:15:43.303Z,16.37
2022-10-21T16:18:12.602Z,16.48
2022-10-21T16:20:35.610Z,16.52
2022-10-21T16:23:00.525Z,16.44
2022-10-21T16:25:24.669Z,16.32
2022-10-21T16:28:01.708Z,16.48
2022-10-21T16:30:28.576Z,16.61
2022-10-21T16:32:51.234Z,16.69
2022-10-21T16:35:14.898Z,16.77
2022-10-21T16:37:36.559Z,16.83
2022-10-21T16:39:58.363Z,16.96
2022-10-21T16:42:19.831Z,16.94
2022-10-21T16:44:41.342Z,16.98
2022-10-21T16:47:03.460Z,16.97
2022-10-21T16:49:26.616Z,17.03
2022-10-21T16:51:48.644Z,17.05
2022-10-21T16:54:10.711Z,17.03
2022-10-21T16:56:32.203Z,17.03
2022-10-21T16:58:53.742Z,17.05
2022-10-21T17:01:21.114Z,17.05
2022-10-21T17:03:42.656Z,17.10
2022-10-21T17:06:04.258Z,17.13
2022-10-21T17:08:25.767Z,17.11
2022-10-21T17:10:47.281Z,17.28
2022-10-21T17:13:10.237Z,17.15
2022-10-21T17:15:31.805Z,17.01
2022-10-21T17:17:53.677Z,16.97
2022-10-21T17:20:15.278Z,16.99
2022-10-21T17:22:36.841Z,17.00
2022-10-21T17:24:58.532Z,16.96
2022-10-21T17:27:21.582Z,16.98
2022-10-21T17:29:43.156Z,16.98
2022-10-21T17:32:05.597Z,16.89
2022-10-21T17:34:30.260Z,16.96
2022-10-21T17:36:51.873Z,16.86
2022-10-21T17:39:13.400Z,16.79
2022-10-21T17:41:34.913Z,16.82
2022-10-21T17:43:56.697Z,16.76
2022-10-21T17:46:20.915Z,16.74
2022-10-21T17:48:42.410Z,16.73
2022-10-21T17:51:04.188Z,16.73
2022-10-21T17:53:27.328Z,16.80
2022-10-21T17:56:06.896Z,16.77
2022-10-21T17:58:28.993Z,16.76
2022-10-21T18:00:50.551Z,16.96
2022-10-21T18:03:12.038Z,16.99
2022-10-21T18:05:33.527Z,16.94
2022-10-21T18:07:55.669Z,16.92
2022-10-21T18:10:17.308Z,16.80
2022-10-21T18:12:39.018Z,16.64
2022-10-21T18:15:00.811Z,16.82
2022-10-21T18:17:22.371Z,16.87
2022-10-21T18:19:43.923Z,16.86
2022-10-21T18:22:05.388Z,16.76
2022-10-21T18:24:26.840Z,16.78
2022-10-21T18:26:48.320Z,16.80
2022-10-21T18:29:09.992Z,16.74
2022-10-21T18:31:34.022Z,16.73
2022-10-21T18:33:57.188Z,16.67
2022-10-21T18:36:18.780Z,16.74
2022-10-21T18:38:40.374Z,16.57
2022-10-21T18:41:26.042Z,16.51
2022-10-21T18:43:50.064Z,16.39
2022-10-21T18:46:11.612Z,16.48
2022-10-21T18:48:33.088Z,16.41
2022-10-21T18:50:54.647Z,16.41
2022-10-21T18:53:16.157Z,16.25
2022-10-21T18:55:40.090Z,16.30
2022-10-21T18:58:01.560Z,16.30
2022-10-21T19:00:23.111Z,16.26
2022-10-21T19:02:44.591Z,16.24
2022-10-21T19:05:06.339Z,16.20
2022-10-21T19:07:27.883Z,16.12
2022-10-21T19:09:49.433Z,16.13
2022-10-21T19:12:15.504Z,16.10
2022-10-21T19:14:38.977Z,16.25
2022-10-21T19:17:01.160Z,16.24
2022-10-21T19:19:22.646Z,16.28
2022-10-21T19:21:44.228Z,16.28
2022-10-21T19:24:06.192Z,16.25
2022-10-21T19:26:28.228Z,16.30
2022-10-21T19:28:50.557Z,16.37
2022-10-21T19:31:12.285Z,16.37
2022-10-21T19:33:33.944Z,16.41
2022-10-21T19:35:59.622Z,16.29
2022-10-21T19:38:39.676Z,16.33
2022-10-21T19:41:08.196Z,16.37
2022-10-21T19:43:29.807Z,16.10
2022-10-21T19:45:53.127Z,16.14
2022-10-21T19:48:16.359Z,16.21
2022-10-21T19:50:45.536Z,16.26
2022-10-21T19:53:07.018Z,16.34
2022-10-21T19:55:28.510Z,16.38
2022-10-21T19:57:49.977Z,16.37
2022-10-21T20:00:12.060Z,16.39
2022-10-21T20:02:33.543Z,16.28
2022-10-21T20:04:55.037Z,16.23
2022-10-21T20:07:16.544Z,16.25
2022-10-21T20:09:38.985Z,16.24
2022-10-21T20:12:00.574Z,16.22
2022-10-21T20:14:22.058Z,16.32
2022-10-21T20:16:43.594Z,16.44
2022-10-21T20:19:06.697Z,16.50
2022-10-21T20:21:29.708Z,16.44
2022-10-21T20:23:51.566Z,16.30
2022-10-21T20:26:13.049Z,16.21
2022-10-21T20:28:34.973Z,16.22
2022-10-21T20:31:05.020Z,16.12
2022-10-21T20:33:28.316Z,16.11
2022-10-21T20:35:49.772Z,16.19
2022-10-21T20:38:11.296Z,16.05
2022-10-21T20:40:32.812Z,15.93
2022-10-21T20:42:54.302Z,15.92
2022-10-21T20:45:15.930Z,16.03
2022-10-21T20:47:37.452Z,16.09
2022-10-21T20:49:58.908Z,16.03
2022-10-21T20:52:20.454Z,16.18
2022-10-21T20:54:41.914Z,16.29
2022-10-21T20:57:03.483Z,16.43
2022-10-21T20:59:25.046Z,16.41
2022-10-21T21:01:47.523Z,16.59
2022-10-21T21:04:12.048Z,16.65
2022-10-21T21:06:47.429Z,16.73
2022-10-21T21:11:51.250Z,16.80
2022-10-21T21:14:13.176Z,16.85
2022-10-21T21:16:34.633Z,16.91
2022-10-21T21:18:58.484Z,16.87
2022-10-21T21:21:21.606Z,16.73
2022-10-21T21:23:44.218Z,16.63
2022-10-21T21:26:08.399Z,16.50
2022-10-21T21:28:33.959Z,16.64
2022-10-21T21:30:57.168Z,16.69
2022-10-21T21:33:18.661Z,16.70
2022-10-21T21:35:40.155Z,16.65
2022-10-21T21:38:01.652Z,16.75
2022-10-21T21:40:23.130Z,16.79
2022-10-21T21:42:44.652Z,16.76
2022-10-21T21:45:06.792Z,16.79
2022-10-21T21:47:28.291Z,16.49
2022-10-21T21:49:49.800Z,16.48
2022-10-21T21:52:11.271Z,16.51
2022-10-21T21:54:32.757Z,16.55
2022-10-21T21:57:00.649Z,16.29
2022-10-21T21:59:35.706Z,16.48
2022-10-21T22:01:57.188Z,16.48
2022-10-21T22:04:18.689Z,16.46
2022-10-21T22:06:40.272Z,16.49
2022-10-21T22:09:03.457Z,16.66
2022-10-21T22:11:28.458Z,16.80
2022-10-21T22:13:50.160Z,16.90
2022-10-21T22:16:13.353Z,16.89
2022-10-21T22:18:35.189Z,16.84
2022-10-21T22:21:01.487Z,16.91
2022-10-21T22:23:22.998Z,16.89
2022-10-21T22:25:44.465Z,17.02
2022-10-21T22:28:06.057Z,17.07
2022-10-21T22:30:27.558Z,17.13
2022-10-21T22:32:49.035Z,17.14
2022-10-21T22:35:11.264Z,17.10
2022-10-21T22:37:32.761Z,17.12
2022-10-21T22:39:54.243Z,16.99
2022-10-21T22:42:16.025Z,16.94
2022-10-21T22:44:37.533Z,17.03
2022-10-21T22:46:59.111Z,17.29
2022-10-21T22:49:20.686Z,17.15
2022-10-21T22:51:42.282Z,17.22
2022-10-21T22:54:05.756Z,17.39
2022-10-21T22:56:33.231Z,17.36
2022-10-21T22:58:54.786Z,17.26
2022-10-21T23:01:16.338Z,17.28
2022-10-21T23:03:37.806Z,17.30
2022-10-21T23:05:59.298Z,17.41
2022-10-21T23:08:21.145Z,17.37
2022-10-21T23:10:42.871Z,17.35
2022-10-21T23:13:05.984Z,17.23
2022-10-21T23:15:27.544Z,17.19
2022-10-21T23:17:49.139Z,17.18
2022-10-21T23:20:11.414Z,17.33
2022-10-21T23:22:32.966Z,17.29
2022-10-21T23:24:54.468Z,17.27
2022-10-21T23:27:16.376Z,17.38
2022-10-21T23:29:37.975Z,17.47
2022-10-21T23:31:59.574Z,17.48
2022-10-21T23:34:21.079Z,17.42
2022-10-21T23:36:42.587Z,17.36
2022-10-21T23:39:04.337Z,17.35
2022-10-21T23:41:25.849Z,17.35
2022-10-21T23:43:47.349Z,17.38
2022-10-21T23:46:08.875Z,17.26
2022-10-21T23:48:30.334Z,17.20
2022-10-21T23:50:51.849Z,17.25
2022-10-21T23:53:13.328Z,17.29
2022-10-21T23:55:35.027Z,17.31
2022-10-21T23:57:57.479Z,17.26
